sensor_id;sensor_type;location;lat;lon;timestamp;P1;durP1;ratioP1;P2;durP2;ratioP2
40339;SDS011;26044;50.864;20.658;2023-04-16T00:02:08;29.67;;;12.32;;
40339;SDS011;26044;50.864;20.658;2023-04-16T00:04:34;30.23;;;12.60;;
40339;SDS011;26044;50.864;20.658;2023-04-16T00:07:01;26.08;;;12.00;;
40339;SDS011;26044;50.864;20.658;2023-04-16T00:09:28;31.02;;;13.55;;
40339;SDS011;26044;50.864;20.658;2023-04-16T00:11:55;29.95;;;13.48;;
40339;SDS011;26044;50.864;20.658;2023-04-16T00:14:22;30.73;;;13.73;;
40339;SDS011;26044;50.864;20.658;2023-04-16T00:16:48;26.85;;;12.57;;
40339;SDS011;26044;50.864;20.658;2023-04-16T00:19:15;29.17;;;12.80;;
40339;SDS011;26044;50.864;20.658;2023-04-16T00:21:42;25.70;;;11.40;;
40339;SDS011;26044;50.864;20.658;2023-04-16T00:24:09;26.23;;;12.38;;
40339;SDS011;26044;50.864;20.658;2023-04-16T00:26:36;28.23;;;12.07;;
40339;SDS011;26044;50.864;20.658;2023-04-16T00:29:02;28.70;;;12.23;;
40339;SDS011;26044;50.864;20.658;2023-04-16T00:31:30;29.55;;;13.15;;
40339;SDS011;26044;50.864;20.658;2023-04-16T00:33:58;28.83;;;12.85;;
40339;SDS011;26044;50.864;20.658;2023-04-16T00:36:26;29.75;;;13.48;;
40339;SDS011;26044;50.864;20.658;2023-04-16T00:38:53;26.38;;;12.68;;
40339;SDS011;26044;50.864;20.658;2023-04-16T00:41:21;27.70;;;12.50;;
40339;SDS011;26044;50.864;20.658;2023-04-16T00:43:52;29.73;;;12.63;;
40339;SDS011;26044;50.864;20.658;2023-04-16T00:46:19;28.40;;;12.20;;
40339;SDS011;26044;50.864;20.658;2023-04-16T00:48:48;27.58;;;12.13;;
40339;SDS011;26044;50.864;20.658;2023-04-16T00:51:18;29.00;;;12.73;;
40339;SDS011;26044;50.864;20.658;2023-04-16T00:53:48;29.83;;;12.35;;
40339;SDS011;26044;50.864;20.658;2023-04-16T00:56:15;30.40;;;14.00;;
40339;SDS011;26044;50.864;20.658;2023-04-16T00:58:43;30.77;;;13.93;;
40339;SDS011;26044;50.864;20.658;2023-04-16T01:01:10;31.05;;;14.60;;
40339;SDS011;26044;50.864;20.658;2023-04-16T01:03:42;32.95;;;13.95;;
40339;SDS011;26044;50.864;20.658;2023-04-16T01:06:11;31.98;;;13.82;;
40339;SDS011;26044;50.864;20.658;2023-04-16T01:08:38;31.02;;;13.45;;
40339;SDS011;26044;50.864;20.658;2023-04-16T01:11:05;33.33;;;14.00;;
40339;SDS011;26044;50.864;20.658;2023-04-16T01:13:32;31.15;;;14.27;;
40339;SDS011;26044;50.864;20.658;2023-04-16T01:16:07;31.92;;;13.70;;
40339;SDS011;26044;50.864;20.658;2023-04-16T01:18:36;32.65;;;14.00;;
40339;SDS011;26044;50.864;20.658;2023-04-16T01:21:04;31.42;;;13.77;;
40339;SDS011;26044;50.864;20.658;2023-04-16T01:23:31;32.28;;;14.98;;
40339;SDS011;26044;50.864;20.658;2023-04-16T01:25:58;32.65;;;14.50;;
40339;SDS011;26044;50.864;20.658;2023-04-16T01:28:25;31.58;;;14.75;;
40339;SDS011;26044;50.864;20.658;2023-04-16T01:30:52;28.98;;;13.25;;
40339;SDS011;26044;50.864;20.658;2023-04-16T01:33:19;32.35;;;14.45;;
40339;SDS011;26044;50.864;20.658;2023-04-16T01:35:46;33.25;;;14.13;;
40339;SDS011;26044;50.864;20.658;2023-04-16T01:38:13;30.33;;;12.98;;
40339;SDS011;26044;50.864;20.658;2023-04-16T01:40:40;29.40;;;13.43;;
40339;SDS011;26044;50.864;20.658;2023-04-16T01:43:06;28.98;;;13.80;;
40339;SDS011;26044;50.864;20.658;2023-04-16T01:45:33;29.92;;;13.40;;
40339;SDS011;26044;50.864;20.658;2023-04-16T01:48:01;28.63;;;12.82;;
40339;SDS011;26044;50.864;20.658;2023-04-16T01:50:29;28.25;;;13.02;;
40339;SDS011;26044;50.864;20.658;2023-04-16T01:52:57;30.33;;;14.05;;
40339;SDS011;26044;50.864;20.658;2023-04-16T01:55:24;33.60;;;14.40;;
40339;SDS011;26044;50.864;20.658;2023-04-16T01:57:50;32.45;;;14.90;;
40339;SDS011;26044;50.864;20.658;2023-04-16T02:00:17;32.85;;;14.73;;
40339;SDS011;26044;50.864;20.658;2023-04-16T02:02:44;34.65;;;15.57;;
40339;SDS011;26044;50.864;20.658;2023-04-16T02:05:12;29.98;;;14.38;;
40339;SDS011;26044;50.864;20.658;2023-04-16T02:07:38;30.02;;;14.00;;
40339;SDS011;26044;50.864;20.658;2023-04-16T02:10:05;27.02;;;12.73;;
40339;SDS011;26044;50.864;20.658;2023-04-16T02:12:33;28.77;;;13.65;;
40339;SDS011;26044;50.864;20.658;2023-04-16T02:15:01;31.67;;;13.10;;
40339;SDS011;26044;50.864;20.658;2023-04-16T02:17:27;29.85;;;13.63;;
40339;SDS011;26044;50.864;20.658;2023-04-16T02:19:54;33.90;;;15.52;;
40339;SDS011;26044;50.864;20.658;2023-04-16T02:22:21;32.08;;;14.68;;
40339;SDS011;26044;50.864;20.658;2023-04-16T02:24:48;32.67;;;16.13;;
40339;SDS011;26044;50.864;20.658;2023-04-16T02:27:15;33.97;;;14.85;;
40339;SDS011;26044;50.864;20.658;2023-04-16T02:29:42;30.13;;;13.82;;
40339;SDS011;26044;50.864;20.658;2023-04-16T02:32:09;29.15;;;13.63;;
40339;SDS011;26044;50.864;20.658;2023-04-16T02:34:36;30.92;;;13.55;;
40339;SDS011;26044;50.864;20.658;2023-04-16T02:37:05;30.65;;;13.73;;
40339;SDS011;26044;50.864;20.658;2023-04-16T02:39:32;30.08;;;13.90;;
40339;SDS011;26044;50.864;20.658;2023-04-16T02:41:58;31.52;;;13.85;;
40339;SDS011;26044;50.864;20.658;2023-04-16T02:44:27;30.58;;;14.95;;
40339;SDS011;26044;50.864;20.658;2023-04-16T02:46:54;34.40;;;15.35;;
40339;SDS011;26044;50.864;20.658;2023-04-16T02:49:21;32.00;;;14.75;;
40339;SDS011;26044;50.864;20.658;2023-04-16T02:51:48;33.40;;;15.07;;
40339;SDS011;26044;50.864;20.658;2023-04-16T02:54:14;32.20;;;15.20;;
40339;SDS011;26044;50.864;20.658;2023-04-16T02:56:41;33.25;;;14.70;;
40339;SDS011;26044;50.864;20.658;2023-04-16T02:59:08;34.75;;;15.02;;
40339;SDS011;26044;50.864;20.658;2023-04-16T03:01:35;32.70;;;15.05;;
40339;SDS011;26044;50.864;20.658;2023-04-16T03:04:02;32.85;;;14.70;;
40339;SDS011;26044;50.864;20.658;2023-04-16T03:06:29;32.67;;;14.77;;
40339;SDS011;26044;50.864;20.658;2023-04-16T03:08:56;31.65;;;15.07;;
40339;SDS011;26044;50.864;20.658;2023-04-16T03:11:23;33.97;;;15.50;;
40339;SDS011;26044;50.864;20.658;2023-04-16T03:13:50;31.25;;;14.63;;
40339;SDS011;26044;50.864;20.658;2023-04-16T03:16:17;31.23;;;13.88;;
40339;SDS011;26044;50.864;20.658;2023-04-16T03:18:43;30.90;;;14.55;;
40339;SDS011;26044;50.864;20.658;2023-04-16T03:21:10;30.88;;;14.02;;
40339;SDS011;26044;50.864;20.658;2023-04-16T03:23:37;30.80;;;14.98;;
40339;SDS011;26044;50.864;20.658;2023-04-16T03:26:04;31.85;;;15.20;;
40339;SDS011;26044;50.864;20.658;2023-04-16T03:28:31;30.17;;;14.18;;
40339;SDS011;26044;50.864;20.658;2023-04-16T03:30:58;30.85;;;14.65;;
40339;SDS011;26044;50.864;20.658;2023-04-16T03:33:25;29.35;;;14.10;;
40339;SDS011;26044;50.864;20.658;2023-04-16T03:35:55;30.13;;;14.70;;
40339;SDS011;26044;50.864;20.658;2023-04-16T03:38:23;32.53;;;14.23;;
40339;SDS011;26044;50.864;20.658;2023-04-16T03:40:51;32.13;;;14.18;;
40339;SDS011;26044;50.864;20.658;2023-04-16T03:43:18;32.72;;;14.93;;
40339;SDS011;26044;50.864;20.658;2023-04-16T03:45:45;29.98;;;13.88;;
40339;SDS011;26044;50.864;20.658;2023-04-16T03:48:13;31.00;;;15.05;;
40339;SDS011;26044;50.864;20.658;2023-04-16T03:50:43;29.52;;;14.13;;
40339;SDS011;26044;50.864;20.658;2023-04-16T03:53:18;32.80;;;14.93;;
40339;SDS011;26044;50.864;20.658;2023-04-16T03:55:48;37.70;;;18.10;;
40339;SDS011;26044;50.864;20.658;2023-04-16T03:58:16;43.92;;;17.83;;
40339;SDS011;26044;50.864;20.658;2023-04-16T04:00:43;32.55;;;15.95;;
40339;SDS011;26044;50.864;20.658;2023-04-16T04:03:10;32.03;;;15.85;;
40339;SDS011;26044;50.864;20.658;2023-04-16T04:05:41;41.10;;;17.35;;
40339;SDS011;26044;50.864;20.658;2023-04-16T04:10:36;32.15;;;15.73;;
40339;SDS011;26044;50.864;20.658;2023-04-16T04:13:04;30.55;;;14.98;;
40339;SDS011;26044;50.864;20.658;2023-04-16T04:15:31;32.97;;;15.77;;
40339;SDS011;26044;50.864;20.658;2023-04-16T04:17:58;33.20;;;15.48;;
40339;SDS011;26044;50.864;20.658;2023-04-16T04:20:25;33.00;;;16.30;;
40339;SDS011;26044;50.864;20.658;2023-04-16T04:22:54;34.88;;;15.98;;
40339;SDS011;26044;50.864;20.658;2023-04-16T04:25:21;34.42;;;16.65;;
40339;SDS011;26044;50.864;20.658;2023-04-16T04:27:47;34.33;;;16.23;;
40339;SDS011;26044;50.864;20.658;2023-04-16T04:30:14;37.83;;;17.00;;
40339;SDS011;26044;50.864;20.658;2023-04-16T04:32:41;35.88;;;18.88;;
40339;SDS011;26044;50.864;20.658;2023-04-16T04:35:08;36.00;;;18.00;;
40339;SDS011;26044;50.864;20.658;2023-04-16T04:37:35;35.38;;;17.48;;
40339;SDS011;26044;50.864;20.658;2023-04-16T04:40:02;38.20;;;16.77;;
40339;SDS011;26044;50.864;20.658;2023-04-16T04:42:29;41.70;;;19.02;;
40339;SDS011;26044;50.864;20.658;2023-04-16T04:44:55;43.75;;;17.98;;
40339;SDS011;26044;50.864;20.658;2023-04-16T04:47:22;40.45;;;18.52;;
40339;SDS011;26044;50.864;20.658;2023-04-16T04:49:49;46.78;;;17.85;;
40339;SDS011;26044;50.864;20.658;2023-04-16T04:52:16;43.25;;;16.85;;
40339;SDS011;26044;50.864;20.658;2023-04-16T04:54:42;38.20;;;16.58;;
40339;SDS011;26044;50.864;20.658;2023-04-16T04:57:09;40.75;;;15.75;;
40339;SDS011;26044;50.864;20.658;2023-04-16T04:59:36;33.70;;;15.93;;
40339;SDS011;26044;50.864;20.658;2023-04-16T05:02:03;35.78;;;16.33;;
40339;SDS011;26044;50.864;20.658;2023-04-16T05:04:29;38.08;;;17.60;;
40339;SDS011;26044;50.864;20.658;2023-04-16T05:06:56;36.92;;;16.23;;
40339;SDS011;26044;50.864;20.658;2023-04-16T05:09:23;35.60;;;17.38;;
40339;SDS011;26044;50.864;20.658;2023-04-16T05:11:50;40.35;;;19.10;;
40339;SDS011;26044;50.864;20.658;2023-04-16T05:14:17;38.05;;;18.20;;
40339;SDS011;26044;50.864;20.658;2023-04-16T05:16:43;29.63;;;15.10;;
40339;SDS011;26044;50.864;20.658;2023-04-16T05:19:10;32.60;;;16.00;;
40339;SDS011;26044;50.864;20.658;2023-04-16T05:21:37;29.77;;;14.73;;
40339;SDS011;26044;50.864;20.658;2023-04-16T05:24:04;29.88;;;14.00;;
40339;SDS011;26044;50.864;20.658;2023-04-16T05:26:31;40.30;;;21.17;;
40339;SDS011;26044;50.864;20.658;2023-04-16T05:28:58;49.00;;;26.55;;
40339;SDS011;26044;50.864;20.658;2023-04-16T05:31:25;70.97;;;36.40;;
40339;SDS011;26044;50.864;20.658;2023-04-16T05:33:52;50.45;;;23.83;;
40339;SDS011;26044;50.864;20.658;2023-04-16T05:36:18;38.67;;;19.38;;
40339;SDS011;26044;50.864;20.658;2023-04-16T05:38:45;31.90;;;14.38;;
40339;SDS011;26044;50.864;20.658;2023-04-16T05:41:12;34.63;;;16.27;;
40339;SDS011;26044;50.864;20.658;2023-04-16T05:43:39;28.77;;;13.85;;
40339;SDS011;26044;50.864;20.658;2023-04-16T05:46:05;30.13;;;12.68;;
40339;SDS011;26044;50.864;20.658;2023-04-16T05:48:32;29.77;;;13.10;;
40339;SDS011;26044;50.864;20.658;2023-04-16T05:50:59;33.85;;;15.13;;
40339;SDS011;26044;50.864;20.658;2023-04-16T05:53:27;29.67;;;12.88;;
40339;SDS011;26044;50.864;20.658;2023-04-16T05:55:54;28.85;;;13.35;;
40339;SDS011;26044;50.864;20.658;2023-04-16T05:58:21;26.73;;;11.63;;
40339;SDS011;26044;50.864;20.658;2023-04-16T06:00:48;26.40;;;11.73;;
40339;SDS011;26044;50.864;20.658;2023-04-16T06:03:14;28.27;;;13.85;;
40339;SDS011;26044;50.864;20.658;2023-04-16T06:05:41;26.40;;;12.77;;
40339;SDS011;26044;50.864;20.658;2023-04-16T06:08:09;25.05;;;11.88;;
40339;SDS011;26044;50.864;20.658;2023-04-16T06:10:36;24.67;;;11.00;;
40339;SDS011;26044;50.864;20.658;2023-04-16T06:13:03;24.25;;;10.95;;
40339;SDS011;26044;50.864;20.658;2023-04-16T06:15:29;23.88;;;10.50;;
40339;SDS011;26044;50.864;20.658;2023-04-16T06:17:56;28.05;;;11.30;;
40339;SDS011;26044;50.864;20.658;2023-04-16T06:20:26;25.98;;;10.63;;
40339;SDS011;26044;50.864;20.658;2023-04-16T06:22:53;22.33;;;10.00;;
40339;SDS011;26044;50.864;20.658;2023-04-16T06:25:21;22.77;;;10.15;;
40339;SDS011;26044;50.864;20.658;2023-04-16T06:27:48;23.60;;;10.70;;
40339;SDS011;26044;50.864;20.658;2023-04-16T06:30:14;22.27;;;11.10;;
40339;SDS011;26044;50.864;20.658;2023-04-16T06:32:41;26.52;;;10.20;;
40339;SDS011;26044;50.864;20.658;2023-04-16T06:35:09;20.67;;;9.77;;
40339;SDS011;26044;50.864;20.658;2023-04-16T06:37:36;21.90;;;10.32;;
40339;SDS011;26044;50.864;20.658;2023-04-16T06:40:03;22.25;;;10.13;;
40339;SDS011;26044;50.864;20.658;2023-04-16T06:42:30;23.42;;;10.88;;
40339;SDS011;26044;50.864;20.658;2023-04-16T06:44:57;20.05;;;9.40;;
40339;SDS011;26044;50.864;20.658;2023-04-16T06:47:24;23.85;;;10.50;;
40339;SDS011;26044;50.864;20.658;2023-04-16T06:49:52;24.10;;;10.57;;
40339;SDS011;26044;50.864;20.658;2023-04-16T06:52:19;22.55;;;10.63;;
40339;SDS011;26044;50.864;20.658;2023-04-16T06:54:46;23.95;;;10.93;;
40339;SDS011;26044;50.864;20.658;2023-04-16T06:57:13;23.35;;;10.68;;
40339;SDS011;26044;50.864;20.658;2023-04-16T06:59:40;19.83;;;9.15;;
40339;SDS011;26044;50.864;20.658;2023-04-16T07:02:07;21.08;;;9.40;;
40339;SDS011;26044;50.864;20.658;2023-04-16T07:04:36;20.13;;;8.93;;
40339;SDS011;26044;50.864;20.658;2023-04-16T07:07:02;21.13;;;9.38;;
40339;SDS011;26044;50.864;20.658;2023-04-16T07:09:29;22.88;;;9.75;;
40339;SDS011;26044;50.864;20.658;2023-04-16T07:11:56;22.73;;;10.13;;
40339;SDS011;26044;50.864;20.658;2023-04-16T07:14:23;21.63;;;9.55;;
40339;SDS011;26044;50.864;20.658;2023-04-16T07:16:49;23.77;;;9.38;;
40339;SDS011;26044;50.864;20.658;2023-04-16T07:19:16;23.45;;;10.30;;
40339;SDS011;26044;50.864;20.658;2023-04-16T07:21:43;23.00;;;10.55;;
40339;SDS011;26044;50.864;20.658;2023-04-16T07:24:10;24.38;;;10.48;;
40339;SDS011;26044;50.864;20.658;2023-04-16T07:26:37;23.38;;;10.00;;
40339;SDS011;26044;50.864;20.658;2023-04-16T07:29:03;23.27;;;10.23;;
40339;SDS011;26044;50.864;20.658;2023-04-16T07:31:30;22.42;;;10.38;;
40339;SDS011;26044;50.864;20.658;2023-04-16T07:33:57;26.45;;;11.60;;
40339;SDS011;26044;50.864;20.658;2023-04-16T07:36:24;29.92;;;11.65;;
40339;SDS011;26044;50.864;20.658;2023-04-16T07:38:52;24.45;;;11.35;;
40339;SDS011;26044;50.864;20.658;2023-04-16T07:41:19;24.48;;;11.18;;
40339;SDS011;26044;50.864;20.658;2023-04-16T07:43:46;23.80;;;11.63;;
40339;SDS011;26044;50.864;20.658;2023-04-16T07:46:12;23.67;;;11.07;;
40339;SDS011;26044;50.864;20.658;2023-04-16T07:48:39;25.83;;;11.57;;
40339;SDS011;26044;50.864;20.658;2023-04-16T07:51:06;24.08;;;11.00;;
40339;SDS011;26044;50.864;20.658;2023-04-16T07:53:34;24.20;;;11.43;;
40339;SDS011;26044;50.864;20.658;2023-04-16T07:56:02;24.23;;;11.55;;
40339;SDS011;26044;50.864;20.658;2023-04-16T07:58:29;25.70;;;11.63;;
40339;SDS011;26044;50.864;20.658;2023-04-16T08:00:55;26.92;;;12.27;;
40339;SDS011;26044;50.864;20.658;2023-04-16T08:03:23;26.52;;;11.57;;
40339;SDS011;26044;50.864;20.658;2023-04-16T08:05:50;23.67;;;12.15;;
40339;SDS011;26044;50.864;20.658;2023-04-16T08:08:17;24.02;;;11.23;;
40339;SDS011;26044;50.864;20.658;2023-04-16T08:10:45;28.45;;;13.10;;
40339;SDS011;26044;50.864;20.658;2023-04-16T08:13:12;24.25;;;10.60;;
40339;SDS011;26044;50.864;20.658;2023-04-16T08:15:38;25.17;;;11.27;;
40339;SDS011;26044;50.864;20.658;2023-04-16T08:18:06;23.35;;;11.18;;
40339;SDS011;26044;50.864;20.658;2023-04-16T08:20:38;24.00;;;10.27;;
40339;SDS011;26044;50.864;20.658;2023-04-16T08:23:04;27.42;;;11.75;;
40339;SDS011;26044;50.864;20.658;2023-04-16T08:25:31;25.27;;;10.95;;
40339;SDS011;26044;50.864;20.658;2023-04-16T08:27:58;26.35;;;11.93;;
40339;SDS011;26044;50.864;20.658;2023-04-16T08:30:25;26.33;;;11.85;;
40339;SDS011;26044;50.864;20.658;2023-04-16T08:32:51;24.45;;;11.20;;
40339;SDS011;26044;50.864;20.658;2023-04-16T08:35:18;24.80;;;12.00;;
40339;SDS011;26044;50.864;20.658;2023-04-16T08:37:45;26.42;;;11.82;;
40339;SDS011;26044;50.864;20.658;2023-04-16T08:40:12;24.58;;;11.45;;
40339;SDS011;26044;50.864;20.658;2023-04-16T08:42:47;24.45;;;12.00;;
40339;SDS011;26044;50.864;20.658;2023-04-16T08:45:18;27.17;;;13.30;;
40339;SDS011;26044;50.864;20.658;2023-04-16T08:47:46;25.92;;;12.82;;
40339;SDS011;26044;50.864;20.658;2023-04-16T08:50:18;26.83;;;13.15;;
40339;SDS011;26044;50.864;20.658;2023-04-16T08:52:50;27.30;;;12.32;;
40339;SDS011;26044;50.864;20.658;2023-04-16T08:55:20;24.50;;;12.03;;
40339;SDS011;26044;50.864;20.658;2023-04-16T08:57:51;25.48;;;11.60;;
40339;SDS011;26044;50.864;20.658;2023-04-16T09:00:21;27.00;;;12.50;;
40339;SDS011;26044;50.864;20.658;2023-04-16T09:02:49;26.17;;;12.93;;
40339;SDS011;26044;50.864;20.658;2023-04-16T09:05:17;25.83;;;12.90;;
40339;SDS011;26044;50.864;20.658;2023-04-16T09:07:46;27.15;;;12.43;;
40339;SDS011;26044;50.864;20.658;2023-04-16T09:10:13;27.77;;;12.90;;
40339;SDS011;26044;50.864;20.658;2023-04-16T09:12:41;26.40;;;13.27;;
40339;SDS011;26044;50.864;20.658;2023-04-16T09:15:08;29.10;;;13.90;;
40339;SDS011;26044;50.864;20.658;2023-04-16T09:17:36;29.98;;;14.20;;
40339;SDS011;26044;50.864;20.658;2023-04-16T09:20:04;27.42;;;13.82;;
40339;SDS011;26044;50.864;20.658;2023-04-16T09:22:34;27.98;;;13.45;;
40339;SDS011;26044;50.864;20.658;2023-04-16T09:25:02;26.55;;;12.85;;
40339;SDS011;26044;50.864;20.658;2023-04-16T09:27:29;28.38;;;14.02;;
40339;SDS011;26044;50.864;20.658;2023-04-16T09:29:57;30.75;;;14.60;;
40339;SDS011;26044;50.864;20.658;2023-04-16T09:32:25;28.15;;;13.25;;
40339;SDS011;26044;50.864;20.658;2023-04-16T09:37:20;29.00;;;14.05;;
40339;SDS011;26044;50.864;20.658;2023-04-16T09:39:54;26.63;;;13.40;;
40339;SDS011;26044;50.864;20.658;2023-04-16T09:42:23;27.10;;;13.98;;
40339;SDS011;26044;50.864;20.658;2023-04-16T09:44:52;31.58;;;15.07;;
40339;SDS011;26044;50.864;20.658;2023-04-16T09:47:21;27.45;;;13.63;;
40339;SDS011;26044;50.864;20.658;2023-04-16T09:49:48;28.58;;;14.52;;
40339;SDS011;26044;50.864;20.658;2023-04-16T09:52:16;31.23;;;16.33;;
40339;SDS011;26044;50.864;20.658;2023-04-16T09:57:12;33.28;;;15.80;;
40339;SDS011;26044;50.864;20.658;2023-04-16T09:59:40;33.50;;;15.93;;
40339;SDS011;26044;50.864;20.658;2023-04-16T10:02:07;36.53;;;16.48;;
40339;SDS011;26044;50.864;20.658;2023-04-16T10:04:48;35.38;;;16.15;;
40339;SDS011;26044;50.864;20.658;2023-04-16T10:07:17;31.88;;;15.68;;
40339;SDS011;26044;50.864;20.658;2023-04-16T10:09:45;33.00;;;15.48;;
40339;SDS011;26044;50.864;20.658;2023-04-16T10:12:15;33.10;;;15.93;;
40339;SDS011;26044;50.864;20.658;2023-04-16T10:14:42;34.00;;;16.77;;
40339;SDS011;26044;50.864;20.658;2023-04-16T10:17:09;32.28;;;15.93;;
40339;SDS011;26044;50.864;20.658;2023-04-16T10:19:36;33.25;;;16.27;;
40339;SDS011;26044;50.864;20.658;2023-04-16T10:22:03;34.58;;;17.30;;
40339;SDS011;26044;50.864;20.658;2023-04-16T10:24:32;29.73;;;14.02;;
40339;SDS011;26044;50.864;20.658;2023-04-16T10:27:01;31.48;;;14.63;;
40339;SDS011;26044;50.864;20.658;2023-04-16T10:29:28;29.42;;;14.00;;
40339;SDS011;26044;50.864;20.658;2023-04-16T10:31:56;32.45;;;15.25;;
40339;SDS011;26044;50.864;20.658;2023-04-16T10:34:24;35.08;;;17.65;;
40339;SDS011;26044;50.864;20.658;2023-04-16T10:36:52;32.35;;;15.63;;
40339;SDS011;26044;50.864;20.658;2023-04-16T10:39:23;32.00;;;15.18;;
40339;SDS011;26044;50.864;20.658;2023-04-16T10:42:09;30.08;;;14.38;;
40339;SDS011;26044;50.864;20.658;2023-04-16T10:44:37;29.27;;;14.55;;
40339;SDS011;26044;50.864;20.658;2023-04-16T10:47:10;30.92;;;15.07;;
40339;SDS011;26044;50.864;20.658;2023-04-16T10:49:38;30.10;;;15.25;;
40339;SDS011;26044;50.864;20.658;2023-04-16T10:52:14;30.70;;;15.00;;
40339;SDS011;26044;50.864;20.658;2023-04-16T10:54:45;33.47;;;16.23;;
40339;SDS011;26044;50.864;20.658;2023-04-16T10:57:16;30.38;;;14.60;;
40339;SDS011;26044;50.864;20.658;2023-04-16T10:59:44;30.88;;;15.10;;
40339;SDS011;26044;50.864;20.658;2023-04-16T11:02:14;31.52;;;14.38;;
40339;SDS011;26044;50.864;20.658;2023-04-16T11:04:43;27.63;;;14.20;;
40339;SDS011;26044;50.864;20.658;2023-04-16T11:12:13;32.10;;;14.55;;
40339;SDS011;26044;50.864;20.658;2023-04-16T11:14:41;30.17;;;14.80;;
40339;SDS011;26044;50.864;20.658;2023-04-16T11:17:12;28.00;;;14.32;;
40339;SDS011;26044;50.864;20.658;2023-04-16T11:19:38;29.83;;;15.13;;
40339;SDS011;26044;50.864;20.658;2023-04-16T11:22:10;31.95;;;15.30;;
40339;SDS011;26044;50.864;20.658;2023-04-16T11:24:38;31.20;;;14.00;;
40339;SDS011;26044;50.864;20.658;2023-04-16T11:27:06;31.30;;;14.35;;
40339;SDS011;26044;50.864;20.658;2023-04-16T11:29:33;28.67;;;13.30;;
40339;SDS011;26044;50.864;20.658;2023-04-16T11:32:03;29.13;;;14.27;;
40339;SDS011;26044;50.864;20.658;2023-04-16T11:34:30;33.08;;;14.50;;
40339;SDS011;26044;50.864;20.658;2023-04-16T11:36:56;29.48;;;13.00;;
40339;SDS011;26044;50.864;20.658;2023-04-16T11:39:23;27.52;;;12.80;;
40339;SDS011;26044;50.864;20.658;2023-04-16T11:41:50;28.60;;;13.48;;
40339;SDS011;26044;50.864;20.658;2023-04-16T11:44:18;31.02;;;14.05;;
40339;SDS011;26044;50.864;20.658;2023-04-16T11:46:53;26.65;;;12.30;;
40339;SDS011;26044;50.864;20.658;2023-04-16T11:49:26;29.10;;;12.38;;
40339;SDS011;26044;50.864;20.658;2023-04-16T11:51:54;27.38;;;12.70;;
40339;SDS011;26044;50.864;20.658;2023-04-16T11:54:22;27.50;;;12.25;;
40339;SDS011;26044;50.864;20.658;2023-04-16T11:56:50;26.38;;;10.93;;
40339;SDS011;26044;50.864;20.658;2023-04-16T11:59:19;24.25;;;10.88;;
40339;SDS011;26044;50.864;20.658;2023-04-16T12:01:49;23.20;;;9.93;;
40339;SDS011;26044;50.864;20.658;2023-04-16T12:04:24;24.33;;;10.50;;
40339;SDS011;26044;50.864;20.658;2023-04-16T12:07:05;24.42;;;10.82;;
40339;SDS011;26044;50.864;20.658;2023-04-16T12:09:33;24.10;;;10.70;;
40339;SDS011;26044;50.864;20.658;2023-04-16T12:12:05;22.08;;;8.65;;
40339;SDS011;26044;50.864;20.658;2023-04-16T12:14:52;20.35;;;8.35;;
40339;SDS011;26044;50.864;20.658;2023-04-16T12:17:22;21.77;;;9.30;;
40339;SDS011;26044;50.864;20.658;2023-04-16T12:19:49;21.35;;;8.88;;
40339;SDS011;26044;50.864;20.658;2023-04-16T12:22:24;22.90;;;9.40;;
40339;SDS011;26044;50.864;20.658;2023-04-16T12:24:58;21.52;;;9.60;;
40339;SDS011;26044;50.864;20.658;2023-04-16T12:27:42;20.88;;;8.95;;
40339;SDS011;26044;50.864;20.658;2023-04-16T12:30:11;18.95;;;6.78;;
40339;SDS011;26044;50.864;20.658;2023-04-16T12:32:40;15.93;;;6.40;;
40339;SDS011;26044;50.864;20.658;2023-04-16T12:35:10;17.65;;;7.13;;
40339;SDS011;26044;50.864;20.658;2023-04-16T12:37:37;20.92;;;8.15;;
40339;SDS011;26044;50.864;20.658;2023-04-16T12:40:04;17.10;;;6.85;;
40339;SDS011;26044;50.864;20.658;2023-04-16T12:42:32;18.90;;;7.20;;
40339;SDS011;26044;50.864;20.658;2023-04-16T12:45:02;20.25;;;8.32;;
40339;SDS011;26044;50.864;20.658;2023-04-16T12:47:31;21.20;;;7.80;;
40339;SDS011;26044;50.864;20.658;2023-04-16T12:49:58;22.55;;;8.27;;
40339;SDS011;26044;50.864;20.658;2023-04-16T12:52:25;21.33;;;8.60;;
40339;SDS011;26044;50.864;20.658;2023-04-16T12:54:52;18.63;;;7.35;;
40339;SDS011;26044;50.864;20.658;2023-04-16T12:57:19;18.13;;;6.90;;
40339;SDS011;26044;50.864;20.658;2023-04-16T12:59:46;13.13;;;5.20;;
40339;SDS011;26044;50.864;20.658;2023-04-16T13:02:12;18.55;;;6.57;;
40339;SDS011;26044;50.864;20.658;2023-04-16T13:04:39;17.35;;;6.15;;
40339;SDS011;26044;50.864;20.658;2023-04-16T13:07:06;15.18;;;6.00;;
40339;SDS011;26044;50.864;20.658;2023-04-16T13:09:33;14.98;;;5.78;;
40339;SDS011;26044;50.864;20.658;2023-04-16T13:12:00;13.48;;;5.63;;
40339;SDS011;26044;50.864;20.658;2023-04-16T13:14:26;14.55;;;5.88;;
40339;SDS011;26044;50.864;20.658;2023-04-16T13:16:53;8.02;;;3.65;;
40339;SDS011;26044;50.864;20.658;2023-04-16T13:19:20;9.38;;;4.15;;
40339;SDS011;26044;50.864;20.658;2023-04-16T13:21:47;13.07;;;4.28;;
40339;SDS011;26044;50.864;20.658;2023-04-16T13:24:13;14.35;;;4.90;;
40339;SDS011;26044;50.864;20.658;2023-04-16T13:26:40;13.43;;;4.40;;
40339;SDS011;26044;50.864;20.658;2023-04-16T13:29:08;9.23;;;4.05;;
40339;SDS011;26044;50.864;20.658;2023-04-16T13:31:35;13.25;;;4.55;;
40339;SDS011;26044;50.864;20.658;2023-04-16T13:34:03;10.73;;;4.50;;
40339;SDS011;26044;50.864;20.658;2023-04-16T13:36:30;14.32;;;5.65;;
40339;SDS011;26044;50.864;20.658;2023-04-16T13:38:58;15.65;;;6.25;;
40339;SDS011;26044;50.864;20.658;2023-04-16T13:41:25;16.30;;;5.60;;
40339;SDS011;26044;50.864;20.658;2023-04-16T13:43:52;13.82;;;5.78;;
40339;SDS011;26044;50.864;20.658;2023-04-16T13:46:19;17.63;;;6.70;;
40339;SDS011;26044;50.864;20.658;2023-04-16T13:48:46;17.58;;;6.93;;
40339;SDS011;26044;50.864;20.658;2023-04-16T13:51:13;16.38;;;6.28;;
40339;SDS011;26044;50.864;20.658;2023-04-16T13:53:40;19.40;;;7.90;;
40339;SDS011;26044;50.864;20.658;2023-04-16T13:56:07;17.27;;;7.18;;
40339;SDS011;26044;50.864;20.658;2023-04-16T13:58:35;16.20;;;6.68;;
40339;SDS011;26044;50.864;20.658;2023-04-16T14:01:02;14.88;;;5.82;;
40339;SDS011;26044;50.864;20.658;2023-04-16T14:03:29;17.13;;;6.40;;
40339;SDS011;26044;50.864;20.658;2023-04-16T14:05:57;14.35;;;5.97;;
40339;SDS011;26044;50.864;20.658;2023-04-16T14:08:24;14.25;;;5.30;;
40339;SDS011;26044;50.864;20.658;2023-04-16T14:10:50;14.07;;;5.75;;
40339;SDS011;26044;50.864;20.658;2023-04-16T14:13:20;12.50;;;5.00;;
40339;SDS011;26044;50.864;20.658;2023-04-16T14:15:47;14.35;;;5.20;;
40339;SDS011;26044;50.864;20.658;2023-04-16T14:18:13;10.98;;;4.47;;
40339;SDS011;26044;50.864;20.658;2023-04-16T14:20:40;15.23;;;5.20;;
40339;SDS011;26044;50.864;20.658;2023-04-16T14:23:07;8.07;;;3.63;;
40339;SDS011;26044;50.864;20.658;2023-04-16T14:25:34;11.95;;;4.38;;
40339;SDS011;26044;50.864;20.658;2023-04-16T14:28:00;9.95;;;4.10;;